Time;durP1;ratioP1;P1;durP2;ratioP2;P2;SDS_P1;SDS_P2;PMS_P1;PMS_P2;Temp;Humidity;BMP_temperature;BMP_pressure;BME280_temperature;BME280_humidity;BME280_pressure;Samples;Min_cycle;Max_cycle;Signal;HPM_P1;HPM_P2
2023/06/12 02:01:00;;;;;;;4.35;3.20;;;;;;;;;;4795507;27;20083;-80
2023/06/12 02:03:28;;;;;;;6.55;3.08;;;;;;;;;;4293844;33;20063;-81
2023/06/12 02:05:54;;;;;;;10.75;3.65;;;;;;;;;;4296023;33;20057;-79
2023/06/12 02:08:20;;;;;;;3.83;3.25;;;;;;;;;;4296994;33;20048;-79
2023/06/12 02:10:46;;;;;;;9.68;3.28;;;;;;;;;;4296554;33;20048;-81
2023/06/12 02:13:12;;;;;;;6.57;3.30;;;;;;;;;;4296718;33;20049;-80
2023/06/12 02:15:38;;;;;;;5.07;3.08;;;;;;;;;;4294623;33;20058;-78
2023/06/12 02:18:06;;;;;;;10.55;3.47;;;;;;;;;;4296801;33;20067;-79
2023/06/12 02:20:32;;;;;;;6.57;2.92;;;;;;;;;;4280079;33;20041;-79
2023/06/12 02:22:58;;;;;;;13.75;2.67;;;;;;;;;;4279906;33;20106;-79
2023/06/12 02:25:24;;;;;;;6.25;3.05;;;;;;;;;;4279710;33;20044;-77
2023/06/12 02:27:52;;;;;;;7.03;3.20;;;;;;;;;;4276935;33;20063;-78
2023/06/12 02:30:27;;;;;;;5.90;2.85;;;;;;;;;;4277747;33;20091;-78
2023/06/12 02:32:54;;;;;;;2.62;2.40;;;;;;;;;;4279804;33;20399;-80
2023/06/12 02:35:21;;;;;;;8.38;2.58;;;;;;;;;;4279848;33;20034;-80
2023/06/12 02:37:47;;;;;;;3.90;3.08;;;;;;;;;;4277787;33;20067;-78
2023/06/12 02:40:14;;;;;;;11.18;3.87;;;;;;;;;;4279818;33;21012;-80
2023/06/12 02:42:40;;;;;;;5.05;2.92;;;;;;;;;;4278481;33;20063;-79
2023/06/12 02:45:06;;;;;;;3.12;2.58;;;;;;;;;;4279704;33;20053;-79
2023/06/12 02:47:33;;;;;;;9.43;3.10;;;;;;;;;;4278381;33;20517;-79
2023/06/12 02:50:00;;;;;;;8.65;3.05;;;;;;;;;;4277795;33;20038;-80
2023/06/12 02:52:27;;;;;;;9.70;3.55;;;;;;;;;;4266490;33;20049;-80
2023/06/12 02:54:54;;;;;;;5.57;3.37;;;;;;;;;;4273042;33;20045;-79
2023/06/12 02:57:20;;;;;;;12.15;3.45;;;;;;;;;;4275820;33;20415;-80
2023/06/12 02:59:46;;;;;;;5.90;3.60;;;;;;;;;;4279179;33;20049;-80
2023/06/12 03:02:13;;;;;;;4.70;3.55;;;;;;;;;;4262307;33;20380;-79
2023/06/12 03:04:39;;;;;;;10.80;2.78;;;;;;;;;;4263439;33;20069;-78
2023/06/12 03:07:06;;;;;;;6.80;3.20;;;;;;;;;;4267725;33;20513;-81
2023/06/12 03:09:32;;;;;;;8.07;3.17;;;;;;;;;;4267994;33;20042;-81
2023/06/12 03:11:59;;;;;;;6.28;3.37;;;;;;;;;;4267606;33;20096;-77
2023/06/12 03:14:26;;;;;;;6.20;3.47;;;;;;;;;;4250989;33;20060;-79
2023/06/12 03:16:52;;;;;;;6.60;3.05;;;;;;;;;;4253820;33;20046;-79
2023/06/12 03:19:18;;;;;;;5.82;3.58;;;;;;;;;;4252308;33;20103;-79
2023/06/12 03:21:44;;;;;;;3.60;3.17;;;;;;;;;;4244708;33;20050;-80
2023/06/12 03:24:11;;;;;;;5.22;3.70;;;;;;;;;;4226407;33;20042;-78
2023/06/12 03:26:38;;;;;;;4.50;3.05;;;;;;;;;;4245955;33;20057;-80
2023/06/12 03:29:04;;;;;;;13.82;3.20;;;;;;;;;;4252550;33;20068;-82
2023/06/12 03:31:31;;;;;;;5.55;3.28;;;;;;;;;;4239842;33;20050;-83
2023/06/12 03:33:57;;;;;;;3.17;2.85;;;;;;;;;;4239151;33;20030;-82
2023/06/12 03:36:33;;;;;;;3.90;2.97;;;;;;;;;;4228145;33;20458;-78
2023/06/12 03:39:00;;;;;;;5.75;3.08;;;;;;;;;;4227998;33;20046;-79
2023/06/12 03:41:29;;;;;;;5.72;3.47;;;;;;;;;;4267389;33;20072;-80
2023/06/12 03:43:55;;;;;;;8.27;3.12;;;;;;;;;;4267107;33;20403;-79
2023/06/12 03:46:21;;;;;;;7.25;3.45;;;;;;;;;;4267079;33;20053;-79
2023/06/12 03:48:47;;;;;;;7.25;3.40;;;;;;;;;;4265019;33;20034;-79
2023/06/12 03:51:14;;;;;;;4.12;3.58;;;;;;;;;;4266362;33;21024;-80
2023/06/12 03:53:47;;;;;;;6.03;3.47;;;;;;;;;;4291844;33;20048;-79
2023/06/12 03:56:13;;;;;;;5.68;3.65;;;;;;;;;;4296531;33;20087;-79
2023/06/12 03:58:39;;;;;;;7.75;3.17;;;;;;;;;;4297010;33;20063;-76
2023/06/12 04:01:06;;;;;;;3.85;3.05;;;;;;;;;;4297322;33;20053;-80
2023/06/12 04:03:34;;;;;;;4.60;3.45;;;;;;;;;;4297067;33;20053;-80
2023/06/12 04:06:00;;;;;;;4.25;3.12;;;;;;;;;;4298351;33;20729;-80
2023/06/12 04:08:26;;;;;;;5.47;3.28;;;;;;;;;;4297973;33;20121;-80
2023/06/12 04:10:53;;;;;;;4.22;2.92;;;;;;;;;;4296465;33;20060;-76
2023/06/12 04:13:19;;;;;;;4.95;2.85;;;;;;;;;;4297983;33;20494;-79
2023/06/12 04:15:47;;;;;;;3.53;2.90;;;;;;;;;;4276780;33;20045;-78
2023/06/12 04:18:14;;;;;;;6.78;2.67;;;;;;;;;;4267469;33;20042;-80
2023/06/12 04:20:41;;;;;;;7.68;3.08;;;;;;;;;;4275168;33;20038;-86
2023/06/12 04:23:11;;;;;;;7.70;3.22;;;;;;;;;;4277694;33;20075;-80
2023/06/12 04:25:38;;;;;;;14.55;3.62;;;;;;;;;;4280958;33;20064;-87
2023/06/12 04:28:07;;;;;;;6.65;2.65;;;;;;;;;;4281917;33;20063;-86
2023/06/12 04:30:35;;;;;;;4.05;2.90;;;;;;;;;;4287727;33;20075;-84
2023/06/12 04:33:02;;;;;;;3.15;2.85;;;;;;;;;;4284485;33;20059;-76
2023/06/12 04:35:29;;;;;;;3.75;3.37;;;;;;;;;;4294324;33;20302;-82
2023/06/12 04:37:55;;;;;;;6.90;3.10;;;;;;;;;;4293122;33;20493;-81
2023/06/12 04:40:22;;;;;;;5.28;2.85;;;;;;;;;;4261819;33;20062;-87
2023/06/12 04:42:56;;;;;;;4.90;2.75;;;;;;;;;;4259188;33;20045;-79
2023/06/12 04:45:23;;;;;;;4.12;2.90;;;;;;;;;;4268666;33;20471;-86
2023/06/12 04:47:50;;;;;;;8.38;2.60;;;;;;;;;;4269923;33;20039;-85
2023/06/12 04:50:16;;;;;;;10.77;4.28;;;;;;;;;;4267693;33;20466;-86
2023/06/12 04:52:42;;;;;;;3.55;3.25;;;;;;;;;;4223882;34;20031;-87
2023/06/12 04:55:09;;;;;;;5.93;2.62;;;;;;;;;;4224594;34;20104;-78
2023/06/12 04:57:39;;;;;;;5.47;2.12;;;;;;;;;;4226400;34;20466;-87
2023/06/12 05:00:06;;;;;;;5.57;2.50;;;;;;;;;;4217456;34;20077;-85
2023/06/12 05:02:35;;;;;;;2.45;2.17;;;;;;;;;;4182825;34;20044;-89
2023/06/12 05:05:02;;;;;;;6.28;2.45;;;;;;;;;;4182604;34;20462;-80
2023/06/12 05:07:28;;;;;;;2.97;2.28;;;;;;;;;;4183031;34;20104;-85
2023/06/12 05:09:56;;;;;;;2.75;2.20;;;;;;;;;;4197147;34;20087;-89
2023/06/12 05:12:22;;;;;;;3.25;2.53;;;;;;;;;;4219318;33;20055;-86
2023/06/12 05:14:48;;;;;;;4.97;2.50;;;;;;;;;;4222844;33;20349;-88
2023/06/12 05:17:15;;;;;;;4.70;2.12;;;;;;;;;;4226578;33;20052;-76
2023/06/12 05:19:41;;;;;;;2.50;2.30;;;;;;;;;;4237222;33;20035;-85
2023/06/12 05:22:08;;;;;;;3.75;2.55;;;;;;;;;;4236863;33;20058;-87
2023/06/12 05:24:34;;;;;;;3.75;2.40;;;;;;;;;;4237332;33;20027;-86
2023/06/12 05:27:01;;;;;;;6.32;2.45;;;;;;;;;;4236909;33;20068;-80
2023/06/12 05:29:27;;;;;;;5.45;2.10;;;;;;;;;;4236776;33;20509;-76
2023/06/12 05:31:53;;;;;;;4.62;2.67;;;;;;;;;;4230631;33;20059;-79
2023/06/12 05:34:20;;;;;;;3.60;2.03;;;;;;;;;;4216167;34;20042;-79
2023/06/12 05:36:46;;;;;;;3.90;3.10;;;;;;;;;;4233829;33;20054;-84
2023/06/12 05:39:12;;;;;;;4.07;2.45;;;;;;;;;;4250035;33;20069;-87
2023/06/12 05:41:39;;;;;;;5.40;2.30;;;;;;;;;;4229975;33;20165;-83
2023/06/12 05:44:06;;;;;;;3.90;2.10;;;;;;;;;;4267980;33;20826;-84
2023/06/12 05:46:34;;;;;;;5.45;2.50;;;;;;;;;;4287603;33;20061;-84
2023/06/12 05:49:00;;;;;;;6.03;2.33;;;;;;;;;;4279992;33;20063;-85
2023/06/12 05:51:29;;;;;;;4.85;2.47;;;;;;;;;;4279207;33;20460;-79
2023/06/12 05:53:56;;;;;;;5.87;2.95;;;;;;;;;;4279449;33;20030;-83
2023/06/12 05:56:23;;;;;;;2.58;2.37;;;;;;;;;;4279727;33;20060;-82
2023/06/12 05:58:50;;;;;;;10.60;2.53;;;;;;;;;;4279796;33;20041;-82
2023/06/12 06:01:21;;;;;;;3.05;2.62;;;;;;;;;;4278701;33;20046;-82
2023/06/12 06:03:48;;;;;;;8.00;2.45;;;;;;;;;;4249719;33;20101;-85
2023/06/12 06:06:15;;;;;;;8.85;3.22;;;;;;;;;;4235297;33;20058;-79
2023/06/12 06:08:41;;;;;;;7.87;4.20;;;;;;;;;;4237182;33;20034;-83
2023/06/12 06:11:08;;;;;;;9.57;2.67;;;;;;;;;;4229872;33;20077;-81
2023/06/12 06:13:34;;;;;;;3.58;1.90;;;;;;;;;;4232492;33;20038;-80
2023/06/12 06:16:03;;;;;;;3.55;1.65;;;;;;;;;;4234802;33;20054;-81
2023/06/12 06:18:29;;;;;;;2.83;1.95;;;;;;;;;;4237045;33;20050;-80
2023/06/12 06:20:56;;;;;;;2.85;1.90;;;;;;;;;;4260380;33;20072;-83
2023/06/12 06:23:23;;;;;;;6.30;2.00;;;;;;;;;;4269874;33;20037;-76
2023/06/12 06:25:50;;;;;;;6.22;2.03;;;;;;;;;;4267781;33;20061;-77
2023/06/12 06:28:17;;;;;;;2.65;1.67;;;;;;;;;;4277808;33;20079;-78
2023/06/12 06:30:43;;;;;;;3.05;1.50;;;;;;;;;;4275840;33;20109;-78
2023/06/12 06:33:10;;;;;;;4.12;1.48;;;;;;;;;;4274647;33;20097;-78
2023/06/12 06:35:36;;;;;;;5.70;1.65;;;;;;;;;;4276075;33;20439;-75
2023/06/12 06:38:03;;;;;;;5.47;1.77;;;;;;;;;;4278157;33;20025;-77
2023/06/12 06:40:30;;;;;;;2.17;2.00;;;;;;;;;;4276254;33;20061;-76
2023/06/12 06:42:56;;;;;;;6.82;1.70;;;;;;;;;;4276328;33;20045;-79
2023/06/12 06:45:22;;;;;;;2.60;1.05;;;;;;;;;;4282044;33;20478;-75
2023/06/12 06:47:49;;;;;;;6.30;1.52;;;;;;;;;;4281736;33;20304;-78
2023/06/12 06:50:17;;;;;;;1.33;1.23;;;;;;;;;;4269094;33;20889;-76
2023/06/12 06:52:44;;;;;;;1.25;1.25;;;;;;;;;;4272192;33;21009;-77
2023/06/12 06:55:11;;;;;;;2.83;1.20;;;;;;;;;;4264963;33;20061;-76
2023/06/12 06:57:38;;;;;;;3.37;1.70;;;;;;;;;;4266367;33;20053;-77
2023/06/12 07:00:06;;;;;;;2.67;1.33;;;;;;;;;;4264523;33;20045;-76
2023/06/12 07:02:33;;;;;;;21.58;1.50;;;;;;;;;;4287582;33;20071;-78
2023/06/12 07:05:00;;;;;;;6.07;1.27;;;;;;;;;;4293634;33;20384;-76
2023/06/12 07:07:26;;;;;;;3.12;1.37;;;;;;;;;;4295013;33;20112;-77
2023/06/12 07:09:53;;;;;;;4.75;1.42;;;;;;;;;;4293405;33;20057;-77
2023/06/12 07:12:20;;;;;;;3.30;1.30;;;;;;;;;;4283483;33;20091;-77
2023/06/12 07:14:46;;;;;;;2.50;2.10;;;;;;;;;;4284645;33;20089;-76
2023/06/12 07:17:13;;;;;;;3.75;1.37;;;;;;;;;;4266982;33;20071;-76
2023/06/12 07:19:42;;;;;;;2.12;1.27;;;;;;;;;;4259640;33;20050;-76
2023/06/12 07:22:08;;;;;;;2.87;1.12;;;;;;;;;;4266381;33;20041;-74
2023/06/12 07:24:35;;;;;;;1.25;1.20;;;;;;;;;;4269833;33;20228;-75
2023/06/12 07:27:01;;;;;;;10.50;1.60;;;;;;;;;;4270222;33;20034;-76
2023/06/12 07:29:27;;;;;;;2.45;1.80;;;;;;;;;;4269395;33;20041;-75
2023/06/12 07:31:53;;;;;;;0.90;0.90;;;;;;;;;;4270983;33;20069;-77
2023/06/12 07:34:19;;;;;;;4.62;1.60;;;;;;;;;;4266729;33;20049;-77
2023/06/12 07:36:46;;;;;;;8.65;1.35;;;;;;;;;;4270824;33;20835;-76
2023/06/12 07:39:14;;;;;;;14.00;1.52;;;;;;;;;;4266801;33;20054;-76
2023/06/12 07:41:42;;;;;;;3.20;1.90;;;;;;;;;;4257132;33;20054;-77
2023/06/12 07:44:10;;;;;;;5.18;0.95;;;;;;;;;;4266109;33;20116;-76
2023/06/12 07:46:37;;;;;;;3.00;1.30;;;;;;;;;;4267464;33;20407;-76
2023/06/12 07:49:04;;;;;;;3.97;1.30;;;;;;;;;;4283527;33;20054;-76
2023/06/12 07:51:29;;;;;;;4.72;1.10;;;;;;;;;;4284228;33;20050;-76
2023/06/12 07:54:03;;;;;;;1.80;1.70;;;;;;;;;;4284667;33;20388;-76
2023/06/12 07:56:30;;;;;;;4.87;1.10;;;;;;;;;;4295121;33;20149;-77
2023/06/12 07:59:04;;;;;;;1.92;1.50;;;;;;;;;;4297461;33;20256;-76
2023/06/12 08:01:34;;;;;;;1.42;1.33;;;;;;;;;;4292474;33;20108;-76
2023/06/12 08:04:03;;;;;;;1.62;1.25;;;;;;;;;;4294995;33;20070;-76
2023/06/12 08:06:33;;;;;;;6.78;1.42;;;;;;;;;;4293426;33;20390;-75
2023/06/12 08:09:00;;;;;;;1.58;1.20;;;;;;;;;;4295275;33;20327;-77
2023/06/12 08:11:26;;;;;;;3.78;1.30;;;;;;;;;;4295338;33;20075;-75
2023/06/12 08:13:53;;;;;;;8.00;1.37;;;;;;;;;;4292093;33;20194;-75
2023/06/12 08:16:20;;;;;;;3.08;1.00;;;;;;;;;;4290808;33;20439;-76
2023/06/12 08:18:48;;;;;;;11.32;1.42;;;;;;;;;;4283212;33;20107;-75
2023/06/12 08:21:15;;;;;;;0.90;0.90;;;;;;;;;;4284991;33;20034;-75
2023/06/12 08:23:41;;;;;;;7.18;1.10;;;;;;;;;;4287868;33;20379;-75
2023/06/12 08:26:08;;;;;;;7.50;1.42;;;;;;;;;;4285540;33;20049;-75
2023/06/12 08:28:37;;;;;;;8.25;1.77;;;;;;;;;;4268168;33;20049;-76
2023/06/12 08:31:04;;;;;;;1.05;0.90;;;;;;;;;;4274454;33;20345;-77
2023/06/12 08:33:32;;;;;;;7.30;1.25;;;;;;;;;;4266201;33;20064;-76
2023/06/12 08:36:01;;;;;;;3.22;1.05;;;;;;;;;;4270411;33;20181;-74
2023/06/12 08:38:27;;;;;;;1.65;0.98;;;;;;;;;;4270807;33;20049;-76
2023/06/12 08:40:56;;;;;;;3.47;1.20;;;;;;;;;;4276665;33;20052;-76
2023/06/12 08:43:23;;;;;;;2.05;1.12;;;;;;;;;;4278453;33;20053;-75
2023/06/12 08:45:51;;;;;;;2.67;1.52;;;;;;;;;;4263184;33;20511;-75
2023/06/12 08:48:19;;;;;;;2.80;1.33;;;;;;;;;;4266414;33;20462;-75
2023/06/12 08:50:46;;;;;;;3.80;1.23;;;;;;;;;;4265814;33;20495;-77
2023/06/12 08:53:12;;;;;;;1.12;1.10;;;;;;;;;;4265917;33;20851;-75
2023/06/12 08:55:42;;;;;;;1.12;1.12;;;;;;;;;;4265151;33;20057;-77
2023/06/12 08:58:09;;;;;;;2.60;1.33;;;;;;;;;;4264696;33;20105;-77
2023/06/12 09:00:35;;;;;;;1.05;1.00;;;;;;;;;;4263177;33;20050;-76
2023/06/12 09:03:04;;;;;;;3.17;1.02;;;;;;;;;;4261251;33;20198;-78
2023/06/12 09:05:33;;;;;;;9.00;1.55;;;;;;;;;;4264971;33;20045;-76
2023/06/12 09:08:03;;;;;;;5.07;1.55;;;;;;;;;;4267007;33;20093;-76
2023/06/12 09:10:31;;;;;;;4.20;1.15;;;;;;;;;;4267997;33;20084;-77
2023/06/12 09:12:58;;;;;;;3.45;1.45;;;;;;;;;;4265254;33;20050;-76
2023/06/12 09:15:24;;;;;;;4.15;1.73;;;;;;;;;;4254181;33;20380;-77
2023/06/12 09:17:51;;;;;;;1.92;1.25;;;;;;;;;;4277470;33;20466;-76
2023/06/12 09:20:27;;;;;;;3.42;2.12;;;;;;;;;;4283021;33;20037;-76
2023/06/12 09:22:54;;;;;;;11.00;1.12;;;;;;;;;;4286756;33;20053;-77
2023/06/12 09:25:21;;;;;;;5.45;1.25;;;;;;;;;;4287841;33;20053;-76
2023/06/12 09:27:47;;;;;;;4.22;1.30;;;;;;;;;;4276110;33;20072;-77
2023/06/12 09:30:13;;;;;;;3.80;1.17;;;;;;;;;;4269985;33;20046;-76
2023/06/12 09:32:44;;;;;;;20.33;8.82;;;;;;;;;;4290571;33;20052;-77
2023/06/12 09:35:11;;;;;;;1.37;1.25;;;;;;;;;;4250070;33;20067;-75
2023/06/12 09:37:41;;;;;;;2.75;1.48;;;;;;;;;;4207446;34;20059;-76
2023/06/12 09:40:10;;;;;;;1.48;1.30;;;;;;;;;;4211108;34;20047;-77
2023/06/12 09:42:38;;;;;;;3.92;1.65;;;;;;;;;;4198371;34;20042;-76
2023/06/12 09:45:14;;;;;;;1.15;1.15;;;;;;;;;;4206704;34;20508;-77
2023/06/12 09:47:41;;;;;;;3.22;1.45;;;;;;;;;;4201118;34;20055;-77
2023/06/12 09:50:07;;;;;;;1.50;1.23;;;;;;;;;;4193824;34;20473;-76
2023/06/12 09:52:34;;;;;;;2.08;1.17;;;;;;;;;;4191597;34;20070;-77
2023/06/12 09:55:05;;;;;;;5.20;1.30;;;;;;;;;;4198978;34;20054;-76
2023/06/12 09:57:37;;;;;;;6.85;1.87;;;;;;;;;;4195820;34;20103;-75
2023/06/12 10:00:05;;;;;;;9.35;1.67;;;;;;;;;;4187618;34;20055;-75
2023/06/12 10:02:45;;;;;;;1.52;1.40;;;;;;;;;;4203572;34;20062;-76
2023/06/12 10:05:16;;;;;;;2.53;1.23;;;;;;;;;;4211913;33;20058;-77
2023/06/12 10:07:51;;;;;;;3.83;0.98;;;;;;;;;;4242392;33;20080;-77
2023/06/12 10:10:19;;;;;;;5.80;1.33;;;;;;;;;;4276897;33;20049;-77
2023/06/12 10:12:45;;;;;;;4.70;1.25;;;;;;;;;;4278832;33;20231;-77
2023/06/12 10:15:12;;;;;;;2.78;2.35;;;;;;;;;;4282283;33;20430;-76
2023/06/12 10:17:42;;;;;;;5.90;1.85;;;;;;;;;;4281967;33;20071;-77
2023/06/12 10:20:10;;;;;;;7.72;1.77;;;;;;;;;;4279520;33;20045;-77
2023/06/12 10:22:37;;;;;;;7.53;1.65;;;;;;;;;;4292257;33;20048;-78
2023/06/12 10:25:03;;;;;;;5.93;1.42;;;;;;;;;;4296635;33;20495;-78
2023/06/12 10:27:30;;;;;;;4.35;2.30;;;;;;;;;;4288639;33;20484;-76
2023/06/12 10:29:57;;;;;;;1.55;1.35;;;;;;;;;;4289434;33;20481;-77
2023/06/12 10:32:25;;;;;;;1.45;1.35;;;;;;;;;;4289408;33;20049;-77
2023/06/12 10:34:54;;;;;;;1.67;1.33;;;;;;;;;;4292849;33;20045;-75
2023/06/12 10:37:22;;;;;;;6.43;1.70;;;;;;;;;;4292598;33;20063;-77
2023/06/12 10:40:14;;;;;;;6.72;2.53;;;;;;;;;;4292970;33;20395;-76
2023/06/12 10:42:43;;;;;;;2.33;2.15;;;;;;;;;;4293164;33;20185;-76
2023/06/12 10:45:16;;;;;;;8.77;1.50;;;;;;;;;;4293078;33;20465;-77
2023/06/12 10:47:42;;;;;;;22.45;2.67;;;;;;;;;;4291395;33;20499;-77
2023/06/12 10:50:08;;;;;;;6.72;1.62;;;;;;;;;;4291001;33;20063;-77
2023/06/12 10:52:35;;;;;;;5.57;1.62;;;;;;;;;;4291820;33;20099;-78
2023/06/12 10:55:10;;;;;;;9.35;1.62;;;;;;;;;;4278551;33;20045;-77
2023/06/12 10:57:37;;;;;;;4.95;1.45;;;;;;;;;;4292915;33;20045;-76
2023/06/12 11:00:05;;;;;;;3.72;1.55;;;;;;;;;;4276978;33;20088;-76
2023/06/12 11:02:57;;;;;;;;;;;;;;;;;;4306028;28;20049;-77
2023/06/12 11:05:24;;;;;;;1.95;1.35;;;;;;;;;;4245868;33;20311;-76
2023/06/12 11:07:50;;;;;;;6.00;1.77;;;;;;;;;;4234144;33;20075;-78
2023/06/12 11:10:16;;;;;;;5.90;1.73;;;;;;;;;;4227679;33;20757;-75
2023/06/12 11:12:47;;;;;;;5.95;1.60;;;;;;;;;;4222229;33;20035;-76
2023/06/12 11:15:13;;;;;;;3.03;1.70;;;;;;;;;;4208183;34;20085;-77
2023/06/12 11:17:39;;;;;;;8.10;1.30;;;;;;;;;;4209810;34;20107;-80
2023/06/12 11:20:06;;;;;;;4.05;1.73;;;;;;;;;;4211905;33;20069;-77
2023/06/12 11:22:32;;;;;;;1.60;1.50;;;;;;;;;;4224444;34;20072;-75
2023/06/12 11:25:01;;;;;;;3.87;1.48;;;;;;;;;;4221716;33;20431;-77
2023/06/12 11:27:27;;;;;;;1.90;1.67;;;;;;;;;;4222226;33;20067;-77
2023/06/12 11:29:54;;;;;;;5.55;2.03;;;;;;;;;;4237095;33;20439;-77
2023/06/12 11:32:20;;;;;;;7.87;1.65;;;;;;;;;;4221970;33;20080;-76
2023/06/12 11:34:46;;;;;;;6.20;1.35;;;;;;;;;;4223848;33;20394;-77
2023/06/12 11:37:16;;;;;;;1.58;1.40;;;;;;;;;;4207348;33;20069;-78
2023/06/12 11:39:43;;;;;;;3.37;1.40;;;;;;;;;;4232579;33;20061;-77
2023/06/12 11:42:12;;;;;;;6.43;1.60;;;;;;;;;;4234618;33;20072;-76
2023/06/12 11:44:39;;;;;;;8.05;1.85;;;;;;;;;;4236556;33;20054;-75
2023/06/12 11:47:05;;;;;;;1.90;1.73;;;;;;;;;;4237606;33;20076;-77
2023/06/12 11:49:34;;;;;;;5.93;1.73;;;;;;;;;;4238232;33;20062;-77
2023/06/12 11:52:00;;;;;;;8.52;1.80;;;;;;;;;;4243092;33;20035;-76
2023/06/12 11:54:26;;;;;;;2.17;1.98;;;;;;;;;;4239304;33;20050;-77
2023/06/12 11:56:52;;;;;;;2.00;1.73;;;;;;;;;;4238105;33;20608;-76
2023/06/12 11:59:21;;;;;;;1.77;1.67;;;;;;;;;;4244313;33;20105;-76
2023/06/12 12:01:48;;;;;;;2.95;1.80;;;;;;;;;;4245592;33;20051;-75
2023/06/12 12:04:17;;;;;;;2.58;1.60;;;;;;;;;;4242695;33;20088;-75
2023/06/12 12:06:47;;;;;;;2.72;1.52;;;;;;;;;;4211118;33;20092;-76
2023/06/12 12:09:13;;;;;;;3.37;1.33;;;;;;;;;;4214852;33;20055;-76
2023/06/12 12:11:39;;;;;;;2.78;1.40;;;;;;;;;;4209335;34;20105;-76
2023/06/12 12:14:06;;;;;;;2.75;1.83;;;;;;;;;;4215438;33;20049;-75
2023/06/12 12:16:37;;;;;;;2.35;1.55;;;;;;;;;;4235335;33;20392;-76
2023/06/12 12:19:27;;;;;;;9.25;1.83;;;;;;;;;;4221854;33;20538;-76
2023/06/12 12:22:00;;;;;;;5.87;1.25;;;;;;;;;;4221423;33;20035;-75
2023/06/12 12:24:34;;;;;;;5.90;1.85;;;;;;;;;;4223311;33;20210;-75
2023/06/12 12:27:00;;;;;;;4.90;1.48;;;;;;;;;;4219407;33;20445;-76
2023/06/12 12:29:27;;;;;;;1.87;1.30;;;;;;;;;;4204198;34;20063;-75
2023/06/12 12:31:52;;;;;;;3.62;1.67;;;;;;;;;;4205971;34;20155;-77
2023/06/12 12:34:19;;;;;;;1.67;1.40;;;;;;;;;;4207527;34;20073;-74
2023/06/12 12:36:47;;;;;;;3.62;1.58;;;;;;;;;;4209403;34;20121;-75
2023/06/12 12:39:13;;;;;;;6.05;1.52;;;;;;;;;;4223218;33;20477;-75
2023/06/12 12:41:39;;;;;;;1.62;1.52;;;;;;;;;;4223218;33;20106;-75
2023/06/12 12:44:05;;;;;;;4.68;1.42;;;;;;;;;;4221574;33;20068;-76
2023/06/12 12:46:32;;;;;;;8.55;1.40;;;;;;;;;;4222108;33;20051;-76
2023/06/12 12:48:58;;;;;;;1.20;1.20;;;;;;;;;;4222531;33;20056;-75
2023/06/12 12:51:24;;;;;;;2.85;1.30;;;;;;;;;;4221962;33;20065;-75
2023/06/12 12:53:51;;;;;;;9.18;1.40;;;;;;;;;;4221806;33;20108;-75
2023/06/12 12:56:17;;;;;;;6.60;1.70;;;;;;;;;;4219604;33;20034;-76
2023/06/12 12:58:44;;;;;;;2.35;2.10;;;;;;;;;;4221433;33;21030;-76
2023/06/12 13:01:10;;;;;;;12.05;1.55;;;;;;;;;;4236698;33;20055;-75
2023/06/12 13:03:38;;;;;;;6.82;1.87;;;;;;;;;;4249561;33;20560;-75
2023/06/12 13:06:08;;;;;;;6.90;1.92;;;;;;;;;;4249682;33;20495;-75
2023/06/12 13:08:36;;;;;;;2.70;1.30;;;;;;;;;;4249087;33;20076;-78
2023/06/12 13:11:02;;;;;;;7.00;2.53;;;;;;;;;;4250488;33;21001;-76
2023/06/12 13:13:29;;;;;;;1.30;1.20;;;;;;;;;;4243077;33;20054;-76
2023/06/12 13:15:55;;;;;;;3.45;2.65;;;;;;;;;;4250192;33;20067;-75
2023/06/12 13:18:21;;;;;;;3.25;1.58;;;;;;;;;;4248894;33;20078;-75
2023/06/12 13:20:47;;;;;;;1.50;1.40;;;;;;;;;;4249239;33;20417;-76
2023/06/12 13:23:14;;;;;;;3.87;1.70;;;;;;;;;;4250110;33;20049;-74
2023/06/12 13:25:40;;;;;;;5.75;1.73;;;;;;;;;;4250857;33;20049;-75
2023/06/12 13:28:06;;;;;;;8.10;2.45;;;;;;;;;;4263582;33;20042;-75
2023/06/12 13:30:32;;;;;;;3.47;1.58;;;;;;;;;;4267193;33;20042;-75
2023/06/12 13:32:58;;;;;;;4.97;1.35;;;;;;;;;;4262541;33;20079;-76
2023/06/12 13:35:25;;;;;;;3.25;1.30;;;;;;;;;;4265630;33;20058;-76
2023/06/12 13:37:51;;;;;;;2.72;1.10;;;;;;;;;;4266963;33;20046;-75
2023/06/12 13:40:17;;;;;;;4.45;2.08;;;;;;;;;;4267179;33;20061;-75
2023/06/12 13:42:46;;;;;;;7.22;1.67;;;;;;;;;;4266707;33;20075;-76
2023/06/12 13:45:12;;;;;;;3.12;1.83;;;;;;;;;;4266190;33;20443;-75
2023/06/12 13:47:38;;;;;;;2.97;1.58;;;;;;;;;;4248411;33;20982;-75
2023/06/12 13:50:10;;;;;;;1.52;1.30;;;;;;;;;;4250514;33;20185;-76
2023/06/12 13:52:37;;;;;;;6.07;1.75;;;;;;;;;;4250074;33;20069;-76
2023/06/12 13:55:03;;;;;;;4.95;1.55;;;;;;;;;;4234700;33;20056;-76
2023/06/12 13:57:30;;;;;;;11.77;1.45;;;;;;;;;;4236362;33;20046;-76
2023/06/12 13:59:56;;;;;;;13.25;2.03;;;;;;;;;;4235817;33;20042;-76
2023/06/12 14:02:22;;;;;;;1.62;1.52;;;;;;;;;;4244010;33;20527;-76
2023/06/12 14:04:49;;;;;;;3.70;2.03;;;;;;;;;;4250248;33;20061;-77
2023/06/12 14:07:15;;;;;;;2.90;2.00;;;;;;;;;;4247567;33;20030;-77
2023/06/12 14:09:41;;;;;;;1.98;1.87;;;;;;;;;;4249285;33;20066;-76
2023/06/12 14:12:08;;;;;;;7.12;1.48;;;;;;;;;;4235315;33;20042;-75
2023/06/12 14:14:35;;;;;;;1.10;1.10;;;;;;;;;;4235242;33;20050;-76
2023/06/12 14:17:01;;;;;;;9.02;1.62;;;;;;;;;;4221310;33;20070;-76
2023/06/12 14:19:27;;;;;;;1.42;1.40;;;;;;;;;;4232321;33;20062;-76
2023/06/12 14:21:55;;;;;;;6.47;1.45;;;;;;;;;;4232861;33;20401;-77
2023/06/12 14:24:21;;;;;;;1.42;1.33;;;;;;;;;;4234393;33;20073;-76
2023/06/12 14:26:47;;;;;;;1.40;1.10;;;;;;;;;;4244664;33;20042;-77
2023/06/12 14:29:14;;;;;;;7.18;1.62;;;;;;;;;;4246113;33;20080;-77
2023/06/12 14:31:40;;;;;;;14.77;2.25;;;;;;;;;;4247585;33;20135;-76
2023/06/12 14:34:06;;;;;;;4.70;1.35;;;;;;;;;;4249278;33;20353;-76
2023/06/12 14:36:39;;;;;;;7.12;1.40;;;;;;;;;;4249507;33;20046;-75
2023/06/12 14:39:05;;;;;;;8.55;1.55;;;;;;;;;;4248987;33;20436;-77
2023/06/12 14:41:32;;;;;;;2.35;1.40;;;;;;;;;;4249203;33;20087;-75
2023/06/12 14:43:58;;;;;;;5.78;1.62;;;;;;;;;;4261225;33;20053;-73
2023/06/12 14:46:24;;;;;;;2.47;1.40;;;;;;;;;;4263442;33;20068;-75
2023/06/12 14:48:51;;;;;;;2.72;1.50;;;;;;;;;;4260065;33;20093;-75
2023/06/12 14:51:17;;;;;;;2.55;1.42;;;;;;;;;;4261409;33;20334;-76
2023/06/12 14:53:43;;;;;;;6.57;1.77;;;;;;;;;;4262116;33;20437;-75
2023/06/12 14:56:09;;;;;;;1.17;1.17;;;;;;;;;;4262908;33;20088;-75
2023/06/12 14:58:35;;;;;;;3.30;1.20;;;;;;;;;;4262194;33;20500;-75
2023/06/12 15:01:01;;;;;;;1.20;1.10;;;;;;;;;;4266534;33;20114;-75
2023/06/12 15:03:28;;;;;;;3.87;1.35;;;;;;;;;;4282518;33;20057;-75
2023/06/12 15:05:54;;;;;;;2.42;1.37;;;;;;;;;;4279889;33;20171;-74
2023/06/12 15:08:20;;;;;;;1.77;1.67;;;;;;;;;;4276419;33;20244;-75
2023/06/12 15:10:49;;;;;;;7.03;1.60;;;;;;;;;;4280129;33;20049;-75
2023/06/12 15:13:15;;;;;;;3.08;1.65;;;;;;;;;;4278814;33;20041;-75
2023/06/12 15:15:41;;;;;;;15.93;2.20;;;;;;;;;;4278666;33;20054;-75
2023/06/12 15:18:08;;;;;;;8.00;1.70;;;;;;;;;;4278231;33;20066;-76
2023/06/12 15:20:34;;;;;;;1.80;1.70;;;;;;;;;;4280288;33;20505;-75
2023/06/12 15:23:00;;;;;;;4.87;1.83;;;;;;;;;;4280054;33;20064;-75
2023/06/12 15:25:26;;;;;;;4.15;2.00;;;;;;;;;;4280160;33;20071;-75
2023/06/12 15:27:53;;;;;;;1.50;1.40;;;;;;;;;;4269933;33;20947;-76
2023/06/12 15:30:19;;;;;;;4.15;2.03;;;;;;;;;;4279432;33;20559;-75
2023/06/12 15:32:46;;;;;;;3.05;1.80;;;;;;;;;;4276636;33;20474;-76
2023/06/12 15:35:13;;;;;;;1.87;1.75;;;;;;;;;;4279026;33;20037;-76
2023/06/12 15:37:40;;;;;;;5.53;1.62;;;;;;;;;;4265997;33;20050;-75
2023/06/12 15:40:07;;;;;;;5.90;1.73;;;;;;;;;;4281363;33;20049;-76
2023/06/12 15:42:33;;;;;;;8.52;2.37;;;;;;;;;;4279974;33;20057;-76
2023/06/12 15:44:59;;;;;;;5.18;1.87;;;;;;;;;;4280255;33;20050;-77
2023/06/12 15:47:26;;;;;;;9.05;5.97;;;;;;;;;;4266302;33;20053;-76
2023/06/12 15:49:52;;;;;;;3.55;2.03;;;;;;;;;;4278082;33;20459;-76
2023/06/12 15:52:18;;;;;;;4.03;1.92;;;;;;;;;;4280119;33;20436;-76
2023/06/12 15:54:44;;;;;;;3.12;1.80;;;;;;;;;;4278586;33;20076;-75
2023/06/12 15:57:17;;;;;;;3.50;2.00;;;;;;;;;;4279740;33;20065;-76
2023/06/12 15:59:43;;;;;;;6.28;1.80;;;;;;;;;;4276651;33;20075;-75
2023/06/12 16:02:09;;;;;;;4.72;1.83;;;;;;;;;;4279187;33;20087;-73
2023/06/12 16:04:36;;;;;;;13.35;1.87;;;;;;;;;;4265077;33;20978;-75
2023/06/12 16:07:02;;;;;;;3.80;1.77;;;;;;;;;;4265138;33;20096;-74
2023/06/12 16:09:28;;;;;;;1.87;1.70;;;;;;;;;;4263916;33;20079;-75
2023/06/12 16:11:54;;;;;;;2.67;1.75;;;;;;;;;;4263688;33;20033;-74
2023/06/12 16:14:21;;;;;;;2.10;2.00;;;;;;;;;;4262456;33;20089;-75
2023/06/12 16:16:47;;;;;;;11.98;1.90;;;;;;;;;;4265295;33;20046;-75
2023/06/12 16:19:13;;;;;;;4.97;2.00;;;;;;;;;;4261721;33;20099;-75
2023/06/12 16:21:39;;;;;;;3.87;1.75;;;;;;;;;;4249818;33;20463;-75
2023/06/12 16:24:06;;;;;;;5.40;2.53;;;;;;;;;;4250028;33;20066;-75
2023/06/12 16:26:32;;;;;;;3.20;1.77;;;;;;;;;;4234977;33;20059;-73
2023/06/12 16:28:58;;;;;;;7.47;2.00;;;;;;;;;;4223026;34;20059;-74
2023/06/12 16:31:24;;;;;;;2.33;1.73;;;;;;;;;;4233859;33;20057;-74
2023/06/12 16:33:51;;;;;;;5.20;1.80;;;;;;;;;;4244638;33;20527;-75
2023/06/12 16:36:17;;;;;;;12.25;1.90;;;;;;;;;;4257988;33;20165;-74
2023/06/12 16:38:43;;;;;;;9.27;1.55;;;;;;;;;;4268987;33;20063;-75
2023/06/12 16:41:10;;;;;;;5.75;2.05;;;;;;;;;;4272279;33;20045;-74
2023/06/12 16:43:36;;;;;;;4.22;1.80;;;;;;;;;;4254856;33;20052;-73